Time;durP1;ratioP1;P1;durP2;ratioP2;P2;SDS_P1;SDS_P2;PMS_P1;PMS_P2;Temp;Humidity;BMP_temperature;BMP_pressure;BME280_temperature;BME280_humidity;BME280_pressure;Samples;Min_cycle;Max_cycle;Signal;HPM_P1;HPM_P2
2023/01/31 00:01:55;;;;;;;21.38;3.63;;;;;;;3.56;100.00;102081.59;4986932;28;20054;-78
2023/01/31 00:04:22;;;;;;;31.95;4.20;;;;;;;3.53;100.00;102086.63;4950546;28;20046;-76
2023/01/31 00:06:52;;;;;;;24.10;4.32;;;;;;;3.49;100.00;102069.94;4956166;28;20046;-77
2023/01/31 00:09:20;;;;;;;14.50;2.73;;;;;;;3.44;100.00;102068.81;4970585;28;20042;-78
2023/01/31 00:11:47;;;;;;;25.38;4.80;;;;;;;3.42;100.00;102070.44;4961740;28;20046;-78
2023/01/31 00:14:19;;;;;;;29.48;6.30;;;;;;;3.38;100.00;102082.41;4960343;28;20042;-77
2023/01/31 00:16:47;;;;;;;27.15;3.92;;;;;;;3.36;100.00;102078.84;4972213;28;20050;-78
2023/01/31 00:19:14;;;;;;;33.72;4.88;;;;;;;3.36;100.00;102085.75;4955114;28;20042;-76
2023/01/31 00:21:44;;;;;;;22.58;4.28;;;;;;;3.35;100.00;102092.69;4984888;28;20395;-77
2023/01/31 00:24:14;;;;;;;22.05;4.95;;;;;;;3.31;100.00;102086.44;4984001;28;20488;-78
2023/01/31 00:26:42;;;;;;;23.70;4.07;;;;;;;3.30;100.00;102083.72;4969058;28;20057;-77
2023/01/31 00:29:10;;;;;;;23.48;4.47;;;;;;;3.25;100.00;102091.31;4958160;28;20050;-78
2023/01/31 00:31:37;;;;;;;23.27;4.22;;;;;;;3.23;100.00;102081.59;4962660;28;20531;-77
2023/01/31 00:34:07;;;;;;;31.75;4.15;;;;;;;3.16;100.00;102077.81;4956710;28;20146;-77
2023/01/31 00:36:35;;;;;;;19.73;4.30;;;;;;;3.11;100.00;102074.06;4931700;28;20061;-78
2023/01/31 00:39:06;;;;;;;27.02;4.00;;;;;;;3.06;100.00;102081.63;4964179;28;20518;-77
2023/01/31 00:41:35;;;;;;;28.85;4.47;;;;;;;3.00;100.00;102078.69;4967878;28;20486;-77
2023/01/31 00:44:04;;;;;;;23.30;4.70;;;;;;;2.95;100.00;102079.25;4948325;28;20504;-77
2023/01/31 00:46:32;;;;;;;25.92;3.83;;;;;;;2.86;100.00;102083.16;4941147;28;20057;-77
2023/01/31 00:49:01;;;;;;;27.60;3.90;;;;;;;2.80;100.00;102081.91;4966109;28;20047;-77
2023/01/31 00:51:28;;;;;;;24.92;5.03;;;;;;;2.71;100.00;102082.31;4938817;28;20058;-77
2023/01/31 00:53:56;;;;;;;23.67;5.10;;;;;;;2.66;100.00;102102.88;4971118;28;20069;-77
2023/01/31 00:56:24;;;;;;;27.90;4.47;;;;;;;2.60;100.00;102097.34;4968859;28;20046;-77
2023/01/31 00:58:52;;;;;;;31.98;4.00;;;;;;;2.54;100.00;102103.09;4959984;28;20415;-77
2023/01/31 01:01:25;;;;;;;24.08;4.40;;;;;;;2.51;100.00;102091.59;4940740;28;20050;-77
2023/01/31 01:03:54;;;;;;;26.58;3.90;;;;;;;2.49;100.00;102077.63;4955274;28;20038;-77
2023/01/31 01:06:23;;;;;;;28.48;4.55;;;;;;;2.49;100.00;102085.44;4953952;28;20053;-77
2023/01/31 01:08:51;;;;;;;28.13;4.32;;;;;;;2.47;100.00;102082.72;4951513;28;20058;-77
2023/01/31 01:11:27;;;;;;;24.63;4.30;;;;;;;2.46;100.00;102086.16;4964284;28;20058;-76
2023/01/31 01:13:56;;;;;;;26.40;4.40;;;;;;;2.46;100.00;102083.56;4989183;28;20069;-77
2023/01/31 01:16:31;;;;;;;26.17;4.78;;;;;;;2.47;100.00;102084.44;4969804;28;20503;-77
2023/01/31 01:19:04;;;;;;;35.53;4.70;;;;;;;2.48;100.00;102086.25;4956737;28;20058;-77
2023/01/31 01:21:38;;;;;;;19.00;3.78;;;;;;;2.50;100.00;102077.72;4955979;28;20042;-78
2023/01/31 01:24:11;;;;;;;25.48;3.65;;;;;;;2.51;100.00;102076.00;4958435;28;20062;-77
2023/01/31 01:26:38;;;;;;;28.40;3.95;;;;;;;2.51;100.00;102081.19;4985041;28;20073;-78
2023/01/31 01:29:09;;;;;;;23.98;4.45;;;;;;;2.53;100.00;102074.38;4955751;28;20046;-77
2023/01/31 01:31:38;;;;;;;21.38;3.95;;;;;;;2.54;100.00;102078.78;4974113;28;20416;-77
2023/01/31 01:34:13;;;;;;;32.72;4.35;;;;;;;2.51;100.00;102091.59;4969618;28;20414;-77
2023/01/31 01:36:41;;;;;;;24.77;5.18;;;;;;;2.52;100.00;102086.50;4930459;28;20050;-78
2023/01/31 01:39:10;;;;;;;24.42;3.83;;;;;;;2.50;100.00;102080.31;4985910;28;20049;-78
2023/01/31 01:41:38;;;;;;;28.75;3.85;;;;;;;2.51;100.00;102083.81;4987232;28;20054;-78
2023/01/31 01:44:46;;;;;;;28.10;4.22;;;;;;;2.52;100.00;102083.91;4957889;28;20077;-77
2023/01/31 01:47:41;;;;;;;26.02;3.88;;;;;;;2.50;100.00;102071.63;4941885;28;20054;-77
2023/01/31 01:50:09;;;;;;;24.35;4.38;;;;;;;2.49;100.00;102082.81;4963111;28;20047;-79
2023/01/31 01:52:44;;;;;;;23.42;3.95;;;;;;;2.45;100.00;102073.94;4927658;28;20412;-77
2023/01/31 01:55:36;;;;;;;24.55;4.93;;;;;;;2.43;100.00;102072.97;4971046;28;20057;-77
2023/01/31 01:58:20;;;;;;;19.08;4.13;;;;;;;2.41;100.00;102084.13;4968649;28;20047;-78
2023/01/31 02:00:48;;;;;;;25.27;4.63;;;;;;;2.39;100.00;102070.13;4974419;28;20058;-77
2023/01/31 02:03:17;;;;;;;22.92;3.67;;;;;;;2.33;100.00;102060.28;4966977;28;20038;-78
2023/01/31 02:05:48;;;;;;;26.52;3.80;;;;;;;2.28;100.00;102070.41;4959553;28;20065;-79
2023/01/31 02:08:21;;;;;;;23.02;4.30;;;;;;;2.25;100.00;102059.84;4937261;28;20049;-78
2023/01/31 02:10:55;;;;;;;26.60;3.22;;;;;;;2.24;100.00;102055.44;4970003;28;20061;-76
2023/01/31 02:13:23;;;;;;;28.02;4.57;;;;;;;2.26;100.00;102053.81;4967639;28;20045;-78
2023/01/31 02:15:52;;;;;;;19.20;4.07;;;;;;;2.26;100.00;102051.22;4982635;28;20047;-78
2023/01/31 02:18:21;;;;;;;14.88;3.08;;;;;;;2.26;100.00;102040.81;4951279;28;20057;-76
2023/01/31 02:21:04;;;;;;;32.83;3.17;;;;;;;2.28;100.00;102052.19;4988467;28;20049;-78
2023/01/31 02:23:47;;;;;;;25.15;3.70;;;;;;;2.29;100.00;102045.31;4949605;28;20076;-78
2023/01/31 02:26:49;;;;;;;23.67;3.47;;;;;;;2.29;100.00;102040.09;4961973;28;20050;-77
2023/01/31 02:29:31;;;;;;;16.40;3.60;;;;;;;2.30;100.00;102028.88;4971082;28;20045;-77
2023/01/31 02:32:47;;;;;;;17.83;3.20;;;;;;;2.32;100.00;102038.53;4987386;28;20079;-77
2023/01/31 02:35:26;;;;;;;15.30;2.92;;;;;;;2.36;100.00;102033.53;4930479;28;20043;-78
2023/01/31 02:38:03;;;;;;;22.17;3.40;;;;;;;2.39;100.00;102029.38;4967058;28;20074;-76
2023/01/31 02:40:58;;;;;;;22.88;3.58;;;;;;;2.44;100.00;102014.03;4939932;28;20042;-76
2023/01/31 02:46:44;;;;;;;16.67;3.25;;;;;;;2.56;100.00;102006.00;4987385;28;20527;-77
2023/01/31 02:49:33;;;;;;;12.82;3.38;;;;;;;2.61;100.00;102002.84;4970362;28;20042;-77
2023/01/31 02:52:18;;;;;;;14.85;2.60;;;;;;;2.66;100.00;102006.56;4982555;28;20054;-77
2023/01/31 02:58:01;;;;;;;15.73;2.85;;;;;;;2.76;100.00;102009.66;4968030;28;20046;-77
2023/01/31 03:00:32;;;;;;;12.88;2.60;;;;;;;2.78;100.00;102003.75;4968724;28;20051;-78
2023/01/31 03:03:03;;;;;;;16.23;3.50;;;;;;;2.82;100.00;101999.59;4969722;28;20055;-76
2023/01/31 03:05:32;;;;;;;23.23;3.75;;;;;;;2.86;100.00;102006.75;4961067;28;20286;-78
2023/01/31 03:08:04;;;;;;;15.82;3.72;;;;;;;2.90;100.00;102003.50;4980900;28;20057;-77
2023/01/31 03:11:01;;;;;;;14.75;2.55;;;;;;;2.94;100.00;101995.03;4931849;28;20042;-77
2023/01/31 03:13:49;;;;;;;21.40;3.70;;;;;;;2.97;100.00;101995.22;4965547;28;20439;-77
2023/01/31 03:19:26;;;;;;;21.80;3.63;;;;;;;3.03;100.00;101979.88;4989544;28;20042;-78
2023/01/31 03:22:00;;;;;;;;;;;;;;;3.06;100.00;101977.47;4977463;28;20053;-77
2023/01/31 03:24:29;;;;;;;25.52;3.38;;;;;;;3.07;100.00;101979.22;4937826;28;19937;-77
2023/01/31 03:27:01;;;;;;;13.65;2.40;;;;;;;3.07;100.00;101968.81;4945762;28;20054;-77
2023/01/31 03:29:33;;;;;;;22.77;4.20;;;;;;;3.09;100.00;101972.38;4972268;28;20038;-78
2023/01/31 03:32:29;;;;;;;20.08;4.10;;;;;;;3.10;100.00;101966.38;4957261;28;20061;-77
2023/01/31 03:34:57;;;;;;;23.95;3.22;;;;;;;3.10;100.00;101966.38;4972858;28;20055;-77
2023/01/31 03:37:34;;;;;;;21.55;3.60;;;;;;;3.10;100.00;101955.03;4951020;28;20058;-77
2023/01/31 03:40:23;;;;;;;16.55;3.30;;;;;;;3.10;100.00;101949.84;4947754;28;20038;-77
2023/01/31 03:42:57;;;;;;;22.40;3.35;;;;;;;3.10;100.00;101950.75;4968492;28;20057;-77
2023/01/31 03:45:56;;;;;;;21.98;3.35;;;;;;;3.10;100.00;101950.75;4962012;28;20419;-76
2023/01/31 03:48:30;;;;;;;15.55;2.60;;;;;;;3.10;100.00;101939.41;4956708;28;20062;-76
2023/01/31 03:51:06;;;;;;;18.20;3.03;;;;;;;3.09;100.00;101941.13;4951978;29;20035;-77
2023/01/31 03:53:40;;;;;;;28.15;4.30;;;;;;;3.09;100.00;101945.47;4932897;29;20958;-78
2023/01/31 03:56:20;;;;;;;17.25;3.15;;;;;;;3.09;100.00;101938.53;4932808;28;20574;-77
2023/01/31 03:58:57;;;;;;;18.45;3.22;;;;;;;3.07;100.00;101934.97;4946559;29;20072;-76
2023/01/31 04:01:27;;;;;;;13.70;3.50;;;;;;;3.06;100.00;101930.59;4942597;29;20047;-77
2023/01/31 04:04:02;;;;;;;19.50;3.58;;;;;;;3.04;100.00;101934.78;4916024;29;20052;-77
2023/01/31 04:06:31;;;;;;;15.70;3.53;;;;;;;3.01;100.00;101936.38;4942081;29;20047;-78
2023/01/31 04:08:59;;;;;;;16.77;3.33;;;;;;;3.00;100.00;101917.22;4921162;29;20044;-77
2023/01/31 04:11:27;;;;;;;18.35;3.88;;;;;;;2.99;100.00;101927.59;4915154;28;20409;-77
2023/01/31 04:13:54;;;;;;;21.48;3.13;;;;;;;2.99;100.00;101923.25;4941159;28;20051;-77
2023/01/31 04:16:22;;;;;;;18.83;2.88;;;;;;;2.99;100.00;101919.78;4946327;29;20423;-77
2023/01/31 04:18:50;;;;;;;16.67;3.10;;;;;;;2.99;100.00;101920.66;4949572;29;20047;-77
2023/01/31 04:21:17;;;;;;;16.02;3.85;;;;;;;3.00;100.00;101911.13;4947176;29;20082;-77
2023/01/31 04:23:45;;;;;;;22.77;2.95;;;;;;;3.00;100.00;101909.41;4943734;29;20456;-77
2023/01/31 04:26:13;;;;;;;18.25;3.28;;;;;;;3.03;100.00;101911.31;4915904;28;20052;-77
2023/01/31 04:28:40;;;;;;;18.98;3.53;;;;;;;3.02;100.00;101914.69;4923099;28;20448;-77
2023/01/31 04:31:08;;;;;;;16.23;2.60;;;;;;;3.06;100.00;101914.03;4965847;28;20058;-77
2023/01/31 04:33:36;;;;;;;14.35;2.60;;;;;;;3.09;100.00;101896.84;4943418;29;20035;-77
2023/01/31 04:36:04;;;;;;;22.80;3.30;;;;;;;3.11;100.00;101887.41;4950025;29;20527;-77
2023/01/31 04:38:31;;;;;;;18.08;3.70;;;;;;;3.15;100.00;101892.78;4944566;28;20048;-77
2023/01/31 04:40:59;;;;;;;17.50;2.97;;;;;;;3.18;100.00;101901.66;4935587;29;20047;-77
2023/01/31 04:43:26;;;;;;;22.05;3.80;;;;;;;3.19;100.00;101899.94;4920273;28;20399;-77
2023/01/31 04:45:54;;;;;;;21.20;3.40;;;;;;;3.21;100.00;101898.28;4981529;28;20065;-77
2023/01/31 04:48:23;;;;;;;22.20;2.90;;;;;;;3.23;100.00;101891.44;4970683;28;20492;-77
2023/01/31 04:50:51;;;;;;;16.60;3.30;;;;;;;3.24;100.00;101890.66;4969763;28;20062;-77
2023/01/31 04:53:20;;;;;;;9.55;2.45;;;;;;;3.27;100.00;101901.19;4965803;28;20514;-77
2023/01/31 04:55:48;;;;;;;18.63;3.60;;;;;;;3.27;100.00;101906.41;4954980;28;20050;-77
2023/01/31 04:58:16;;;;;;;20.45;3.38;;;;;;;3.27;100.00;101895.97;4940316;28;20509;-77
2023/01/31 05:00:43;;;;;;;19.00;3.88;;;;;;;3.28;100.00;101885.66;4971154;28;20057;-77
2023/01/31 05:03:11;;;;;;;14.40;4.15;;;;;;;3.29;100.00;101873.53;4950359;28;20415;-77
2023/01/31 05:05:40;;;;;;;16.98;3.58;;;;;;;3.31;100.00;101883.19;4981037;28;20046;-77
2023/01/31 05:08:07;;;;;;;19.08;3.80;;;;;;;3.32;100.00;101868.47;4968342;28;20070;-77
2023/01/31 05:10:35;;;;;;;13.88;3.30;;;;;;;3.35;100.00;101871.22;4969409;28;20455;-77
2023/01/31 05:13:02;;;;;;;22.63;4.40;;;;;;;3.38;100.00;101873.97;4949329;28;20047;-77
2023/01/31 05:15:31;;;;;;;19.98;3.60;;;;;;;3.40;100.00;101874.94;4962967;28;20055;-77
2023/01/31 05:18:02;;;;;;;29.90;3.88;;;;;;;3.42;100.00;101873.31;4976915;28;20045;-77
2023/01/31 05:20:30;;;;;;;;;;;;;;;3.45;100.00;101881.25;4968491;28;20046;-77
2023/01/31 05:22:59;;;;;;;24.77;3.08;;;;;;;3.48;100.00;101873.59;4949453;28;19933;-77
2023/01/31 05:25:27;;;;;;;19.50;4.00;;;;;;;3.51;100.00;101868.53;4966505;28;20045;-77
2023/01/31 05:27:54;;;;;;;22.27;3.28;;;;;;;3.54;100.00;101866.91;4949895;28;20054;-77
2023/01/31 05:30:25;;;;;;;21.45;3.47;;;;;;;3.58;100.00;101861.03;4934008;28;20388;-77
2023/01/31 05:32:52;;;;;;;29.88;4.45;;;;;;;3.60;100.00;101852.44;4972845;28;20073;-77
2023/01/31 05:35:20;;;;;;;25.05;6.00;;;;;;;3.64;100.00;101848.28;4988855;28;20045;-77
2023/01/31 05:37:47;;;;;;;22.95;3.25;;;;;;;3.66;100.00;101850.13;4952394;28;20058;-77
2023/01/31 05:40:16;;;;;;;17.73;3.70;;;;;;;3.73;100.00;101845.22;4971433;28;20043;-77
2023/01/31 05:42:44;;;;;;;24.30;5.28;;;;;;;3.77;100.00;101828.91;4969661;28;20504;-77
2023/01/31 05:45:12;;;;;;;20.55;4.93;;;;;;;3.84;100.00;101833.56;4925758;28;20064;-77
2023/01/31 05:47:40;;;;;;;31.63;5.30;;;;;;;3.92;100.00;101833.94;4956873;28;20054;-77
2023/01/31 05:50:08;;;;;;;22.45;4.70;;;;;;;3.97;100.00;101817.66;4985511;28;20047;-77
2023/01/31 05:52:35;;;;;;;33.30;5.20;;;;;;;4.04;100.00;101821.44;4953586;28;20054;-77
2023/01/31 05:55:04;;;;;;;18.85;5.00;;;;;;;4.09;100.00;101814.72;4952801;28;20463;-77
2023/01/31 05:57:32;;;;;;;19.48;4.10;;;;;;;4.14;100.00;101809.69;4987467;28;20042;-77
2023/01/31 06:00:01;;;;;;;29.00;5.22;;;;;;;4.17;100.00;101799.41;4926167;28;20038;-77
2023/01/31 06:02:37;;;;;;;17.33;4.50;;;;;;;4.22;100.00;101798.78;4966088;28;20803;-77
2023/01/31 06:05:08;;;;;;;19.92;3.80;;;;;;;4.23;100.00;101784.91;4968367;28;20077;-77
2023/01/31 06:07:36;;;;;;;27.67;4.60;;;;;;;4.26;100.00;101797.22;4985886;28;20049;-77
2023/01/31 06:10:05;;;;;;;29.73;4.25;;;;;;;4.27;100.00;101794.66;4941245;28;20058;-77
2023/01/31 06:12:33;;;;;;;22.52;4.40;;;;;;;4.30;100.00;101788.69;4955902;28;20054;-77
2023/01/31 06:15:01;;;;;;;18.83;5.13;;;;;;;4.30;100.00;101792.19;4950132;28;20043;-78
2023/01/31 06:17:29;;;;;;;26.83;4.95;;;;;;;4.32;100.00;101786.16;4982810;28;20484;-78
2023/01/31 06:19:59;;;;;;;22.33;4.25;;;;;;;4.34;100.00;101774.06;4971782;28;20053;-78
2023/01/31 06:22:26;;;;;;;33.20;4.95;;;;;;;4.33;100.00;101767.97;4972450;28;20031;-77
2023/01/31 06:24:53;;;;;;;31.60;5.38;;;;;;;4.35;100.00;101757.56;4986740;28;20054;-77
2023/01/31 06:27:21;;;;;;;24.23;4.18;;;;;;;4.35;100.00;101758.47;4964775;28;20077;-77
2023/01/31 06:29:48;;;;;;;23.10;4.75;;;;;;;4.37;100.00;101759.44;4962497;28;20058;-77
2023/01/31 06:32:15;;;;;;;19.63;4.63;;;;;;;4.39;100.00;101749.94;4955539;28;20974;-78
2023/01/31 06:34:46;;;;;;;20.63;4.45;;;;;;;4.41;100.00;101752.63;4975331;28;20046;-77
2023/01/31 06:37:13;;;;;;;28.73;4.50;;;;;;;4.41;100.00;101750.00;4984632;28;20041;-77
2023/01/31 06:39:40;;;;;;;24.48;3.88;;;;;;;4.43;100.00;101738.81;4980878;28;20061;-78
2023/01/31 06:42:07;;;;;;;32.95;5.40;;;;;;;4.44;100.00;101734.47;4953253;28;20073;-77
2023/01/31 06:44:36;;;;;;;25.65;5.22;;;;;;;4.46;100.00;101732.81;4987683;28;20054;-77
2023/01/31 06:47:04;;;;;;;24.90;5.15;;;;;;;4.48;100.00;101725.97;4946310;28;20926;-76
2023/01/31 06:49:32;;;;;;;24.02;4.68;;;;;;;4.49;100.00;101731.22;4988402;28;20403;-78
2023/01/31 06:52:00;;;;;;;21.67;5.25;;;;;;;4.51;100.00;101733.91;4980315;28;20046;-78
2023/01/31 06:54:29;;;;;;;19.38;4.90;;;;;;;4.52;100.00;101724.34;4969029;28;20062;-77
2023/01/31 06:56:56;;;;;;;22.90;4.60;;;;;;;4.53;100.00;101731.38;4967133;28;20050;-78
2023/01/31 06:59:23;;;;;;;16.58;4.15;;;;;;;4.53;100.00;101713.97;4932124;28;20474;-78
2023/01/31 07:01:51;;;;;;;16.75;3.45;;;;;;;4.53;100.00;101702.66;4917865;28;20042;-77
2023/01/31 07:04:19;;;;;;;24.35;4.40;;;;;;;4.54;100.00;101691.38;4982696;28;20051;-76
2023/01/31 07:06:47;;;;;;;20.30;4.57;;;;;;;4.56;100.00;101684.53;4972304;28;20060;-77
2023/01/31 07:09:14;;;;;;;22.67;4.07;;;;;;;4.57;100.00;101686.28;4953655;28;20065;-79
2023/01/31 07:11:41;;;;;;;22.90;4.45;;;;;;;4.57;100.00;101688.91;4955277;28;20050;-79
2023/01/31 07:14:09;;;;;;;24.58;4.63;;;;;;;4.56;100.00;101685.41;4931499;28;20062;-79
2023/01/31 07:16:40;;;;;;;27.20;4.68;;;;;;;4.55;100.00;101681.00;4955998;28;20059;-78
2023/01/31 07:19:07;;;;;;;22.67;4.50;;;;;;;4.56;100.00;101687.13;4953587;28;20054;-79
2023/01/31 07:21:35;;;;;;;23.17;4.80;;;;;;;4.57;100.00;101676.72;4967096;28;20489;-78
2023/01/31 07:24:03;;;;;;;19.25;3.85;;;;;;;4.56;100.00;101698.44;4942702;28;20084;-77
2023/01/31 07:26:30;;;;;;;34.03;4.90;;;;;;;4.58;100.00;101680.25;4936689;28;20054;-77
2023/01/31 07:28:59;;;;;;;24.13;3.78;;;;;;;4.59;100.00;101693.34;4940837;28;20058;-78
2023/01/31 07:31:27;;;;;;;33.13;5.05;;;;;;;4.59;100.00;101680.28;4934345;28;20190;-77
2023/01/31 07:33:54;;;;;;;20.70;4.55;;;;;;;4.61;100.00;101680.34;4969546;28;20046;-76
2023/01/31 07:36:25;;;;;;;24.48;4.45;;;;;;;4.63;100.00;101683.91;4967719;28;20060;-77
2023/01/31 07:38:55;;;;;;;22.13;5.20;;;;;;;4.64;100.00;101694.44;4943431;28;20054;-78
2023/01/31 07:41:23;;;;;;;27.33;5.35;;;;;;;4.65;100.00;101695.31;4962547;28;20073;-77
2023/01/31 07:43:51;;;;;;;23.23;4.90;;;;;;;4.68;100.00;101669.34;4956054;28;20051;-77
2023/01/31 07:46:19;;;;;;;23.15;4.63;;;;;;;4.68;100.00;101670.22;4974067;28;20051;-78
2023/01/31 07:48:46;;;;;;;16.33;4.15;;;;;;;4.69;100.00;101685.06;4933908;28;20059;-78
2023/01/31 07:51:14;;;;;;;14.10;3.92;;;;;;;4.71;100.00;101676.38;4949681;28;20773;-77
2023/01/31 07:53:42;;;;;;;26.77;4.95;;;;;;;4.72;100.00;101670.34;4942710;28;20057;-77
2023/01/31 07:56:13;;;;;;;21.70;4.03;;;;;;;4.71;100.00;101661.63;4957335;28;20068;-77
2023/01/31 07:58:42;;;;;;;;;;;;;;;4.72;100.00;101657.31;4952307;28;20051;-76
2023/01/31 08:04:10;;;;;;;22.17;4.57;;;;;;;4.73;100.00;101649.53;4947593;28;20050;-77
2023/01/31 08:06:52;;;;;;;19.13;4.35;;;;;;;4.76;100.00;101633.09;4955275;28;20050;-78
2023/01/31 08:09:20;;;;;;;18.98;4.13;;;;;;;4.78;100.00;101644.47;4974722;28;20062;-77
2023/01/31 08:11:48;;;;;;;24.80;4.13;;;;;;;4.80;100.00;101643.72;4971000;28;21596;-76
2023/01/31 08:14:15;;;;;;;24.83;3.65;;;;;;;4.83;100.00;101640.34;4946661;28;20054;-80
2023/01/31 08:16:43;;;;;;;19.13;3.83;;;;;;;4.84;100.00;101649.97;4967838;28;20490;-76
2023/01/31 08:19:10;;;;;;;13.95;3.95;;;;;;;4.85;100.00;101643.91;4944540;28;20043;-77
2023/01/31 08:21:38;;;;;;;23.70;4.25;;;;;;;4.87;100.00;101645.72;4978577;28;20476;-76
2023/01/31 08:24:08;;;;;;;20.33;3.30;;;;;;;4.89;100.00;101645.78;4960950;28;20046;-78
2023/01/31 08:26:36;;;;;;;17.50;3.25;;;;;;;4.93;100.00;101636.34;4974674;28;20046;-76
2023/01/31 08:29:03;;;;;;;17.92;3.15;;;;;;;4.96;100.00;101632.16;4976480;28;20050;-76
2023/01/31 08:31:30;;;;;;;14.98;3.17;;;;;;;5.01;100.00;101625.38;4966127;28;20042;-78
2023/01/31 08:33:58;;;;;;;13.95;2.95;;;;;;;5.04;100.00;101629.81;4931464;28;20371;-78
2023/01/31 08:36:30;;;;;;;13.45;3.03;;;;;;;5.06;100.00;101615.97;4968787;28;20396;-76
2023/01/31 08:38:58;;;;;;;18.48;3.60;;;;;;;5.08;100.00;101614.34;4948150;28;20072;-77
2023/01/31 08:41:29;;;;;;;11.45;3.55;;;;;;;5.12;100.00;101627.50;4966272;28;20704;-77
2023/01/31 08:43:59;;;;;;;15.52;4.30;;;;;;;5.14;100.00;101615.38;4935033;28;20051;-77
2023/01/31 08:46:33;;;;;;;20.80;3.58;;;;;;;5.16;100.00;101598.03;4936460;28;20058;-76
2023/01/31 08:49:03;;;;;;;16.33;3.60;;;;;;;5.18;100.00;101585.91;4933211;28;20042;-78
2023/01/31 08:51:31;;;;;;;19.33;3.60;;;;;;;5.20;100.00;101597.34;4991018;28;20053;-78
2023/01/31 08:53:58;;;;;;;18.17;3.22;;;;;;;5.23;100.00;101600.06;4983467;28;20049;-77
2023/01/31 08:56:26;;;;;;;13.82;3.00;;;;;;;5.24;100.00;101591.41;4951077;28;20057;-78
2023/01/31 08:58:54;;;;;;;13.45;3.40;;;;;;;5.26;100.00;101585.38;4955848;28;20380;-78
2023/01/31 09:01:22;;;;;;;14.65;4.05;;;;;;;5.27;100.00;101576.72;4948325;28;20065;-77
2023/01/31 09:03:55;;;;;;;23.63;4.22;;;;;;;5.29;100.00;101576.75;4963895;28;20533;-77
2023/01/31 09:06:26;;;;;;;13.57;3.08;;;;;;;5.32;100.00;101576.00;4968984;28;20054;-77
2023/01/31 09:08:55;;;;;;;12.90;2.88;;;;;;;5.33;100.00;101568.22;4956516;28;20058;-77
2023/01/31 09:11:26;;;;;;;17.90;3.15;;;;;;;5.33;100.00;101578.66;4993191;28;20045;-77
2023/01/31 09:13:54;;;;;;;15.35;3.60;;;;;;;5.35;100.00;101569.16;4950673;28;20046;-78
2023/01/31 09:16:21;;;;;;;15.82;3.22;;;;;;;5.37;100.00;101558.72;4975231;28;20077;-77
2023/01/31 09:18:48;;;;;;;12.63;3.70;;;;;;;5.38;100.00;101563.13;4967211;28;20054;-77
2023/01/31 09:21:19;;;;;;;17.88;3.30;;;;;;;5.41;100.00;101566.75;4957656;28;20042;-77
2023/01/31 09:23:47;;;;;;;10.00;2.95;;;;;;;5.43;100.00;101557.25;4972802;28;20043;-77
2023/01/31 09:26:15;;;;;;;13.88;4.00;;;;;;;5.45;100.00;101554.69;4943134;28;20065;-78
2023/01/31 09:28:44;;;;;;;20.77;4.05;;;;;;;5.46;100.00;101546.00;4933716;28;20058;-77
2023/01/31 09:31:17;;;;;;;21.95;3.63;;;;;;;5.49;100.00;101537.38;4931390;28;20046;-77
2023/01/31 09:33:45;;;;;;;17.42;3.65;;;;;;;5.50;100.00;101553.13;4942785;28;20046;-77
2023/01/31 09:36:18;;;;;;;12.57;2.67;;;;;;;5.52;100.00;101541.00;4942004;28;20053;-77
2023/01/31 09:38:46;;;;;;;21.13;5.13;;;;;;;5.53;100.00;101545.38;4987476;28;20042;-77
2023/01/31 09:41:36;;;;;;;18.27;3.10;;;;;;;5.55;100.00;101540.22;4954033;28;20123;-77
2023/01/31 09:44:16;;;;;;;19.27;3.53;;;;;;;5.55;100.00;101540.22;4949099;28;20046;-76
2023/01/31 09:46:51;;;;;;;27.55;5.47;;;;;;;5.54;100.00;101533.19;4954099;28;20055;-76
2023/01/31 09:49:27;;;;;;;22.73;3.42;;;;;;;5.54;100.00;101539.31;4944758;29;20051;-76
2023/01/31 09:52:01;;;;;;;18.70;3.97;;;;;;;5.54;100.00;101543.66;4914399;28;20063;-76
2023/01/31 09:54:35;;;;;;;13.85;3.95;;;;;;;5.54;100.00;101551.47;4952599;28;20047;-77
2023/01/31 09:57:11;;;;;;;17.52;4.03;;;;;;;5.54;100.00;101536.72;4945359;29;20044;-77
2023/01/31 09:59:38;;;;;;;13.55;3.53;;;;;;;5.53;100.00;101545.38;4927249;29;20058;-77
2023/01/31 10:02:27;;;;;;;15.55;3.75;;;;;;;5.53;100.00;101541.88;4933599;28;20815;-77
2023/01/31 10:05:05;;;;;;;17.43;3.37;;;;;;;5.53;100.00;101536.66;4938384;28;20059;-77
2023/01/31 10:07:40;;;;;;;16.23;3.10;;;;;;;5.52;100.00;101546.22;4945201;28;20047;-78
2023/01/31 10:10:20;;;;;;;20.02;3.53;;;;;;;5.53;100.00;101547.09;4948419;29;20043;-77
2023/01/31 10:12:54;;;;;;;24.88;3.78;;;;;;;5.54;100.00;101538.41;4945399;28;20046;-77
2023/01/31 10:15:55;;;;;;;30.40;5.32;;;;;;;5.56;100.00;101549.84;4953122;28;20047;-77
2023/01/31 10:18:30;;;;;;;16.60;3.45;;;;;;;5.56;100.00;101561.19;4935159;28;20055;-77
2023/01/31 10:21:05;;;;;;;22.92;3.53;;;;;;;5.58;100.00;101548.16;4949096;28;20052;-77
2023/01/31 10:23:49;;;;;;;26.75;4.50;;;;;;;5.59;100.00;101550.81;4921190;28;20419;-77
2023/01/31 10:26:28;;;;;;;21.92;3.65;;;;;;;5.57;100.00;101552.47;4950393;29;20752;-77
2023/01/31 10:29:27;;;;;;;19.75;3.83;;;;;;;5.58;100.00;101559.50;4946179;28;20074;-78
2023/01/31 10:32:14;;;;;;;19.27;3.85;;;;;;;5.59;100.00;101552.53;4922750;28;20479;-77
2023/01/31 10:35:11;;;;;;;17.50;3.28;;;;;;;5.58;100.00;101551.66;4903900;29;20046;-77
2023/01/31 10:37:47;;;;;;;20.77;4.05;;;;;;;5.58;100.00;101553.41;4960044;28;20436;-78
2023/01/31 10:40:24;;;;;;;13.02;2.83;;;;;;;5.57;100.00;101549.88;4943287;28;20062;-78
2023/01/31 10:42:59;;;;;;;16.27;3.35;;;;;;;5.56;100.00;101550.72;4956917;28;20046;-78
2023/01/31 10:45:32;;;;;;;23.77;3.97;;;;;;;5.56;100.00;101555.06;4956334;28;20070;-78
2023/01/31 10:48:33;;;;;;;22.27;3.47;;;;;;;5.55;100.00;101554.16;4981299;28;20078;-78
2023/01/31 10:51:12;;;;;;;17.85;3.30;;;;;;;5.55;100.00;101553.28;4971476;28;20050;-77
2023/01/31 10:54:25;;;;;;;20.48;3.92;;;;;;;5.56;100.00;101552.47;4965864;28;20057;-77
2023/01/31 10:56:53;;;;;;;14.05;3.40;;;;;;;5.58;100.00;101532.47;4937857;28;20055;-78
2023/01/31 10:59:43;;;;;;;14.77;3.40;;;;;;;5.58;100.00;101530.75;4942343;28;20049;-77
2023/01/31 11:02:26;;;;;;;20.13;3.15;;;;;;;5.60;100.00;101523.84;4982563;28;20388;-77
2023/01/31 11:04:58;;;;;;;14.43;3.47;;;;;;;5.63;100.00;101513.50;4955651;28;20054;-77
2023/01/31 11:07:30;;;;;;;12.70;2.88;;;;;;;5.65;100.00;101509.22;4982300;28;20131;-77
2023/01/31 11:09:58;;;;;;;12.60;3.13;;;;;;;5.67;100.00;101496.16;4961432;28;20042;-77
2023/01/31 11:12:51;;;;;;;13.90;4.00;;;;;;;5.70;100.00;101501.50;4981630;28;20034;-77
2023/01/31 11:15:23;;;;;;;12.75;2.92;;;;;;;5.73;100.00;101503.31;4990275;28;20859;-77
2023/01/31 11:17:51;;;;;;;18.23;2.90;;;;;;;5.76;100.00;101513.91;4965673;28;20046;-77
2023/01/31 11:20:24;;;;;;;11.85;3.45;;;;;;;5.78;100.00;101501.75;4951470;28;20595;-77
2023/01/31 11:22:54;;;;;;;8.77;2.75;;;;;;;5.79;100.00;101501.81;4960424;28;20061;-77
2023/01/31 11:25:25;;;;;;;16.02;3.97;;;;;;;5.80;100.00;101479.16;4937506;28;20051;-77
2023/01/31 11:27:53;;;;;;;;;;;;;;;5.84;100.00;101507.19;4950676;28;20061;-77
2023/01/31 11:30:41;;;;;;;17.95;3.78;;;;;;;5.85;100.00;101507.25;4985104;28;20347;-77
2023/01/31 11:33:46;;;;;;;14.45;3.03;;;;;;;5.89;100.00;101495.16;4940583;28;20436;-77
2023/01/31 11:36:21;;;;;;;16.90;4.07;;;;;;;5.90;100.00;101499.56;4954274;28;20055;-78
2023/01/31 11:38:50;;;;;;;14.35;4.22;;;;;;;5.91;100.00;101498.69;4981795;28;20050;-78
2023/01/31 11:41:30;;;;;;;19.13;4.28;;;;;;;5.91;100.00;101497.81;4947419;28;20021;-76
2023/01/31 11:44:11;;;;;;;20.42;4.40;;;;;;;5.93;100.00;101489.19;4947243;28;20050;-78
2023/01/31 11:46:53;;;;;;;21.02;3.92;;;;;;;5.94;100.00;101487.47;5073454;28;20415;-78
2023/01/31 11:49:34;;;;;;;18.10;3.35;;;;;;;5.96;100.00;101494.56;5055727;28;20537;-77
2023/01/31 11:52:20;;;;;;;18.70;4.20;;;;;;;5.99;100.00;101480.66;5035638;28;20056;-76
2023/01/31 11:54:53;;;;;;;17.63;3.13;;;;;;;6.04;100.00;101473.88;5056250;28;20037;-77
2023/01/31 11:57:35;;;;;;;22.00;4.90;;;;;;;6.11;100.00;101474.97;5029876;28;20047;-78